Thursday, February 11, 2016
23:35 UTC
  |  Log In   |  Register Free
Airport Search:

Kingsville Nas Airport
(KNQI)

FAA data valid effective Feb 4 2016 - Mar 31 2016 (unless otherwise noted).

 
 
 
 
 
 
 
 
 
 
 
 
 
 
Current Aviation Weather for KNQI

Weather Summary


The most recent METAR observation for NQI was updated at: 12:56 UTC
METAR for KNQI is not available. Closest METAR is for KRBO
KNQI  (most recent observation was updatred at 11:22 UTC)
112256Z 13012KT 10SM FEW250 26/13 A3010 RMK AO2 SLP188 T02610133 $

KRBO  (17.5 nm SW)   (most recent observation was updated at 11:23 UTC)
112315Z AUTO 15016KT 10SM CLR 26/12 A3011 RMK AO2 T02550117

KALI  (18.2 nm SE)   (most recent observation was updated at 11:22 UTC)
112253Z AUTO 16013KT 10SM CLR 28/03 A3008 RMK AO2 SLP185 T02780033 TSNO

TAF for KNQI is not available.
KNQI
COR 1123/1223 13013KT 9999 FEW250 522709 523603 QNH3008INS TEMPO 1200/1203 15012G19KT BECMG 1202/1204 16011KT 9999 SKC 522709 523603 QNH3012INS BECMG 1207/1209 18009KT 9999 FEW012 500000 QNH3015INS TEMPO 1208/1214 VRB05KT 3200 BR SCT005 BKN008 BECMG 1215/1217 18011KT 9999 NSW SCT025 SCT250 QNH3015INS BECMG 1220/1222 13011KT 9999 FEW035 SCT250 QNH3016INS TEMPO 1220/1223 SCT030 SCT250 AUTOMATED SENSOR METWATCH 1206 TIL 1212 T12/1212Z T27/1221Z COR 2300 FN20041

KALI  (18.2 nm SE)   (most recent observation was updatred at 11:23 UTC)
112323Z 1200/1224 16010KT P6SM SKC FM120800 18004KT 4SM BR SCT008 TEMPO 1210/1214 2SM BR BKN005 FM121500 17010KT P6SM SCT050


KCRP  (22.8 nm SW)   (most recent observation was updatred at 11:23 UTC)
112323Z 1200/1224 17018KT P6SM SKC FM120200 17010KT P6SM SKC FM121000 18008KT P6SM SCT015 FM121600 16012G18KT P6SM SCT050
GlobalAir.com is loading additional information.
 Current Weather at NQI
82.0 F° (27.8 C°)

Southeast winds at 13.8 mph
Pressure:
30.09 in
Humidity:
32%
Wind:
Southeast at 13.8 mph
Dew Point:
48.9 F° (9.4 C°)
Visibility:
10.00 mi
NQI NOAA Radar




Find All Airport Services Find A Hotel Find A Rental Car Find A Golf Course Find A Restaurant $100 Hamburger



Airport Weather Forecast for KNQI

Translated METAR for KNQI (2256 UTC)
METAR:
KNQI 112256Z 13012KT 10SM FEW250 26/13 A3010 RMK AO2 SLP188 T02610133 $
Conditions at:
KNQI (Kingsville Nas, TX) observed 2256 UTC 11 February 2016
Temperature:
26°C (78.8°F)
Dewpoint:
13°C (55.4°F) [RH = 44.6]
Pressure:
30.1 inches Hg (1019.3 mb)
pressure at sea level is 188 in Hg
Winds:
from the SE (130 degrees) at 13.8 mph (12 knots: 6.2 m/s)
Visibility:
10 mile(s)
Ceiling:
at least 12,000 feet AGL
Clouds:
Few Clouds at 25,000 feet AGL
Remarks:
SOME DATA ABOVE MAY BE INACCURATE!!!
"$" is an indication the sensor requires maintenance
site is automated and HAS a precipitation sensor

Translated TAF for KNQI (Kingsville Nas, TX) ( UTC)
TAF text:
KNQI 1123/1223 13013KT 9999 FEW250 522709 523603 QNH3008INS
Forecast period:
Thursday Feb 11 2016 23:00 UTC - Friday Feb 12 2016 23:00 UTC
Forecast type:
FROM: standard forecast or significant change
Winds:
from the SE (130 degrees) at 15 mph (13 knots: 6.7 m/s)
Visibility:
Ceiling:
at least 12,000 feet AGL
Clouds:
Few Clouds at 25,000 feet AGL
Weather:
no significant weather observed at this time
TAF text:
1200/1203 15012G19KT BECMG 1202/1204 16011KT 9999 SKC 522709 523603 QNH3012INS BECMG 1207/1209 18009KT 9999 FEW012 500000 QNH3015INS
Forecast period:
Saturday Feb 13 2016 00:00 UTC - Saturday Feb 13 2016 03:00 UTC
Forecast type:
FROM: standard forecast or significant change
Winds:
from the S (180 degrees) at 10.4 mph (9 knots: 4.6 m/s)
Visibility:
Ceiling:
at least 12,000 feet AGL
at least 12,000 feet AGL
Clouds:
Clear Skies
Few Clouds at 1,200 feet AGL
Weather:
no significant weather observed at this time
FBO's on the Field
FBO Company Facility Photos Services Transportation Aviation Fuel Prices: Prices include tax
Catering Weather Repair Courtesy Rental Type 100LL JetA JetA+ MOGAS 8087
 
Add another FBO Facility Photos Catering Weather Repair Courtesy Rental Type 100LL JetA JetA+ MOGAS 8087
Services Transportation Aviation Fuel Prices: Prices include tax
There are no FBO's currently reporting fuel at NQI. List your FBO now


model-print
model-print
model-print
model-print